createdAt,value
2023-02-22T00:00:45.236Z,98715.13
2023-02-22T00:03:25.324Z,98724.53
2023-02-22T00:05:55.447Z,98724.53
2023-02-22T00:08:24.385Z,98736.63
2023-02-22T00:10:52.360Z,98736.19
2023-02-22T00:13:22.966Z,98744.09
2023-02-22T00:15:50.192Z,98752.75
2023-02-22T00:18:19.786Z,98756.53
2023-02-22T00:20:47.715Z,98754.78
2023-02-22T00:23:23.088Z,98759.91
2023-02-22T00:25:51.433Z,98767.75
2023-02-22T00:28:19.535Z,98774.66
2023-02-22T00:30:48.453Z,98776.44
2023-02-22T00:33:17.068Z,98778.38
2023-02-22T00:35:46.082Z,98782.84
2023-02-22T00:38:16.125Z,98794.03
2023-02-22T00:40:43.570Z,98797.00
2023-02-22T00:43:11.197Z,98794.38
2023-02-22T00:45:38.669Z,98806.69
2023-02-22T00:48:06.749Z,98811.13
2023-02-22T00:50:34.172Z,98807.97
2023-02-22T00:53:03.816Z,98814.13
2023-02-22T00:55:34.685Z,98828.06
2023-02-22T00:58:02.582Z,98829.19
2023-02-22T01:00:32.897Z,98831.59
2023-02-22T01:03:00.314Z,98836.75
2023-02-22T01:05:30.291Z,98840.13
2023-02-22T01:07:59.161Z,98849.59
2023-02-22T01:10:29.740Z,98851.25
2023-02-22T01:12:57.620Z,98855.47
2023-02-22T01:15:29.156Z,98857.13
2023-02-22T01:17:58.512Z,98868.25
2023-02-22T01:20:27.024Z,98875.94
2023-02-22T01:22:56.416Z,98871.59
2023-02-22T01:25:26.981Z,98883.63
2023-02-22T01:27:55.441Z,98892.25
2023-02-22T01:30:26.132Z,98887.78
2023-02-22T01:32:54.009Z,98894.75
2023-02-22T01:35:25.109Z,98903.34
2023-02-22T01:37:52.193Z,98901.78
2023-02-22T01:40:35.043Z,98902.44
2023-02-22T01:43:15.714Z,98905.94
2023-02-22T01:45:48.722Z,98911.22
2023-02-22T01:48:30.904Z,98907.66
2023-02-22T01:51:18.927Z,98918.00
2023-02-22T01:53:57.354Z,98918.03
2023-02-22T01:56:29.868Z,98921.59
2023-02-22T01:59:02.721Z,98929.25
2023-02-22T02:01:30.845Z,98933.56
2023-02-22T02:04:00.901Z,98943.13
2023-02-22T02:06:33.607Z,98945.78
2023-02-22T02:09:19.237Z,98940.44
2023-02-22T02:11:47.020Z,98952.56
2023-02-22T02:14:15.159Z,98953.41
2023-02-22T02:16:46.296Z,98952.53
2023-02-22T02:19:37.847Z,98969.91
2023-02-22T02:22:26.013Z,98969.91
2023-02-22T02:24:55.822Z,98969.00
2023-02-22T02:27:26.741Z,98973.44
2023-02-22T02:29:59.731Z,98986.47
2023-02-22T02:32:37.842Z,98989.84
2023-02-22T02:35:15.284Z,98995.97
2023-02-22T02:37:54.997Z,99001.28
2023-02-22T02:40:39.343Z,98995.97
2023-02-22T02:43:25.045Z,99002.16
2023-02-22T02:45:55.564Z,99004.91
2023-02-22T02:48:27.622Z,99008.31
2023-02-22T02:50:58.976Z,99009.22
2023-02-22T02:53:36.769Z,99012.91
2023-02-22T02:56:04.400Z,99012.78
2023-02-22T02:58:32.578Z,99018.94
2023-02-22T03:01:04.783Z,99024.94
2023-02-22T03:03:38.153Z,99033.63
2023-02-22T03:06:34.583Z,99031.88
2023-02-22T03:09:38.939Z,99031.78
2023-02-22T03:12:22.749Z,99041.34
2023-02-22T03:15:18.468Z,99039.56
2023-02-22T03:18:03.527Z,99043.94
2023-02-22T03:21:19.742Z,99053.41
2023-02-22T03:24:03.470Z,99052.56
2023-02-22T03:26:50.085Z,99063.78
2023-02-22T03:29:20.833Z,99069.91
2023-02-22T03:32:01.816Z,99067.25
2023-02-22T03:34:40.923Z,99075.91
2023-02-22T03:37:20.382Z,99074.19
2023-02-22T03:39:52.021Z,99075.97
2023-02-22T03:42:24.423Z,99075.06
2023-02-22T03:44:53.917Z,99077.66
2023-02-22T03:47:31.833Z,99083.72
2023-02-22T03:50:07.226Z,99083.72
2023-02-22T03:52:36.549Z,99091.53
2023-02-22T03:55:11.318Z,99092.44
2023-02-22T03:57:45.241Z,99092.44
2023-02-22T04:00:18.276Z,99099.34
2023-02-22T04:02:46.082Z,99101.09
2023-02-22T04:05:18.842Z,99110.66
2023-02-22T04:07:46.600Z,99116.75
2023-02-22T04:10:16.554Z,99118.56
2023-02-22T04:12:47.252Z,99115.03
2023-02-22T04:15:18.679Z,99121.06
2023-02-22T04:17:46.925Z,99121.91
2023-02-22T04:20:20.047Z,99128.78
2023-02-22T04:23:08.143Z,99130.56
2023-02-22T04:25:38.773Z,99133.16
2023-02-22T04:28:11.250Z,99138.38
2023-02-22T04:30:44.727Z,99135.81
2023-02-22T04:33:16.562Z,99141.94
2023-02-22T04:35:44.076Z,99143.59
2023-02-22T04:38:11.816Z,99154.09
2023-02-22T04:40:40.508Z,99155.78
2023-02-22T04:43:08.454Z,99161.06
2023-02-22T04:45:36.453Z,99167.97
2023-02-22T04:48:05.208Z,99175.91
2023-02-22T04:50:32.513Z,99173.19
2023-02-22T04:52:59.865Z,99181.97
2023-02-22T04:55:28.574Z,99183.66
2023-02-22T04:57:58.238Z,99188.97
2023-02-22T05:00:26.540Z,99194.28
2023-02-22T05:02:58.174Z,99207.41
2023-02-22T05:05:25.809Z,99212.66
2023-02-22T05:07:53.660Z,99209.16
2023-02-22T05:10:21.102Z,99217.84
2023-02-22T05:12:49.030Z,99222.19
2023-02-22T05:15:19.837Z,99222.31
2023-02-22T05:17:47.884Z,99240.50
2023-02-22T05:20:22.871Z,99240.63
2023-02-22T05:22:52.070Z,99243.22
2023-02-22T05:25:20.935Z,99247.78
2023-02-22T05:27:55.563Z,99259.13
2023-02-22T05:30:25.743Z,99270.47
2023-02-22T05:32:53.629Z,99271.28
2023-02-22T05:35:22.144Z,99276.56
2023-02-22T05:37:51.040Z,99281.81
2023-02-22T05:40:21.005Z,99277.38
2023-02-22T05:42:49.773Z,99281.78
2023-02-22T05:45:21.053Z,99282.72
2023-02-22T05:47:48.557Z,99288.84
2023-02-22T05:50:20.111Z,99297.44
2023-02-22T05:52:49.148Z,99300.81
2023-02-22T05:55:19.381Z,99300.72
2023-02-22T05:57:47.479Z,99308.47
2023-02-22T06:00:24.095Z,99301.59
2023-02-22T06:03:05.520Z,99312.06
2023-02-22T06:05:33.457Z,99321.56
2023-02-22T06:08:02.237Z,99321.56
2023-02-22T06:10:29.662Z,99324.13
2023-02-22T06:12:58.587Z,99332.91
2023-02-22T06:15:27.562Z,99339.78
2023-02-22T06:17:56.790Z,99348.44
2023-02-22T06:20:26.169Z,99360.56
2023-02-22T06:22:55.651Z,99361.47
2023-02-22T06:25:26.679Z,99361.47
2023-02-22T06:27:54.348Z,99364.03
2023-02-22T06:30:24.522Z,99372.59
2023-02-22T06:32:52.063Z,99372.66
2023-02-22T06:35:20.368Z,99372.75
2023-02-22T06:37:47.725Z,99383.09
2023-02-22T06:40:17.853Z,99389.13
2023-02-22T06:42:47.680Z,99379.50
2023-02-22T06:45:17.008Z,99393.44
2023-02-22T06:47:44.337Z,99397.84
2023-02-22T06:50:23.961Z,99398.72
2023-02-22T06:52:54.077Z,99408.28
2023-02-22T06:55:24.403Z,99400.50
2023-02-22T06:57:52.470Z,99399.59
2023-02-22T07:00:22.754Z,99400.44
2023-02-22T07:02:50.150Z,99406.38
2023-02-22T07:05:20.025Z,99401.13
2023-02-22T07:07:49.396Z,99405.34
2023-02-22T07:10:29.820Z,99406.88
2023-02-22T07:12:57.234Z,99417.25
2023-02-22T07:15:26.577Z,99421.38
2023-02-22T07:17:54.352Z,99423.09
2023-02-22T07:20:24.644Z,99422.13
2023-02-22T07:22:52.428Z,99430.97
2023-02-22T07:25:20.700Z,99431.53
2023-02-22T07:27:48.239Z,99426.28
2023-02-22T07:30:25.574Z,99427.00
2023-02-22T07:32:55.012Z,99434.84
2023-02-22T07:35:25.654Z,99438.16
2023-02-22T07:37:55.757Z,99432.56
2023-02-22T07:40:24.575Z,99439.34
2023-02-22T07:42:59.755Z,99434.84
2023-02-22T07:45:32.665Z,99440.41
2023-02-22T07:48:02.087Z,99442.81
2023-02-22T07:50:31.453Z,99444.41
2023-02-22T07:53:01.037Z,99445.06
2023-02-22T07:55:30.258Z,99441.69
2023-02-22T07:58:00.349Z,99451.41
2023-02-22T08:00:39.648Z,99449.69
2023-02-22T08:03:09.941Z,99453.78
2023-02-22T08:05:39.273Z,99455.44
2023-02-22T08:08:08.525Z,99454.34
2023-02-22T08:10:37.255Z,99454.97
2023-02-22T08:13:05.738Z,99461.69
2023-02-22T08:15:36.074Z,99455.31
2023-02-22T08:18:09.510Z,99462.94
2023-02-22T08:20:38.835Z,99461.13
2023-02-22T08:23:07.674Z,99460.34
2023-02-22T08:25:35.321Z,99468.16
2023-02-22T08:28:06.425Z,99471.63
2023-02-22T08:30:35.250Z,99473.97
2023-02-22T08:33:03.917Z,99471.97
2023-02-22T08:35:33.429Z,99473.41
2023-02-22T08:38:03.684Z,99472.19
2023-02-22T08:40:35.096Z,99473.97
2023-02-22T08:43:04.849Z,99473.75
2023-02-22T08:45:32.828Z,99471.38
2023-02-22T08:48:00.437Z,99484.19
2023-02-22T08:50:30.586Z,99480.88
2023-02-22T08:53:00.464Z,99478.91
2023-02-22T08:55:34.565Z,99486.38
2023-02-22T08:58:06.194Z,99483.72
2023-02-22T09:00:34.537Z,99485.25
2023-02-22T09:03:04.641Z,99483.91
2023-02-22T09:05:35.335Z,99488.28
2023-02-22T09:08:03.345Z,99494.28
2023-02-22T09:10:33.916Z,99492.25
2023-02-22T09:13:01.641Z,99487.00
2023-02-22T09:15:30.435Z,99491.91
2023-02-22T09:17:58.429Z,99493.75
2023-02-22T09:20:26.430Z,99499.53
2023-02-22T09:22:54.167Z,99499.53
2023-02-22T09:25:22.023Z,99504.31
2023-02-22T09:27:51.210Z,99509.94
2023-02-22T09:30:24.154Z,99500.94
2023-02-22T09:32:53.963Z,99510.50
2023-02-22T09:35:27.711Z,99501.66
2023-02-22T09:37:57.265Z,99504.22
2023-02-22T09:40:30.314Z,99508.22
2023-02-22T09:43:18.745Z,99505.34
2023-02-22T09:46:24.924Z,99508.69
2023-02-22T09:48:52.253Z,99501.66
2023-02-22T09:51:21.288Z,99505.16
2023-02-22T09:53:52.522Z,99507.78
2023-02-22T09:56:21.437Z,99502.44
2023-02-22T09:58:55.608Z,99502.22
2023-02-22T10:01:36.779Z,99500.16
2023-02-22T10:04:23.597Z,99503.38
2023-02-22T10:07:18.626Z,99504.91
2023-02-22T10:09:49.146Z,99500.91
2023-02-22T10:12:27.533Z,99499.22
2023-02-22T10:15:32.351Z,99495.03
2023-02-22T10:18:39.450Z,99496.19
2023-02-22T10:21:15.546Z,99499.84
2023-02-22T10:23:58.349Z,99502.28
2023-02-22T10:26:38.615Z,99498.13
2023-02-22T10:29:18.361Z,99499.13
2023-02-22T10:31:50.932Z,99500.56
2023-02-22T10:34:25.297Z,99498.53
2023-02-22T10:37:15.045Z,99503.53
2023-02-22T10:39:43.458Z,99498.88
2023-02-22T10:42:11.174Z,99503.63
2023-02-22T10:44:41.195Z,99502.44
2023-02-22T10:47:12.360Z,99504.13
2023-02-22T10:49:47.617Z,99502.97
2023-02-22T10:52:35.415Z,99509.56
2023-02-22T10:55:15.061Z,99506.25
2023-02-22T10:57:47.089Z,99508.63
2023-02-22T11:00:31.426Z,99512.31
2023-02-22T11:03:02.049Z,99516.53
2023-02-22T11:05:44.104Z,99508.88
2023-02-22T11:08:31.366Z,99521.91
2023-02-22T11:11:04.071Z,99515.13
2023-02-22T11:13:34.558Z,99516.66
2023-02-22T11:16:19.952Z,99519.56
2023-02-22T11:18:48.819Z,99524.91
2023-02-22T11:21:23.467Z,99531.09
2023-02-22T11:24:06.064Z,99527.75
2023-02-22T11:26:47.985Z,99525.31
2023-02-22T11:29:41.891Z,99530.00
2023-02-22T11:32:22.003Z,99535.81
2023-02-22T11:35:03.481Z,99537.31
2023-02-22T11:37:37.811Z,99534.50
2023-02-22T11:40:14.235Z,99538.38
2023-02-22T11:42:42.908Z,99532.72
2023-02-22T11:45:25.856Z,99525.28
2023-02-22T11:47:53.987Z,99514.72
2023-02-22T11:51:02.156Z,99521.66
2023-02-22T11:53:45.990Z,99521.81
2023-02-22T11:56:35.704Z,99524.63
2023-02-22T11:59:11.862Z,99524.66
2023-02-22T12:01:51.947Z,99524.00
2023-02-22T12:04:41.336Z,99528.16
2023-02-22T12:07:31.108Z,99523.84
2023-02-22T12:10:18.605Z,99528.19
2023-02-22T12:13:03.985Z,99535.38
2023-02-22T12:15:38.379Z,99539.63
2023-02-22T12:18:25.734Z,99542.53
2023-02-22T12:20:59.570Z,99538.63
2023-02-22T12:23:55.828Z,99553.31
2023-02-22T12:26:32.243Z,99542.63
2023-02-22T12:29:05.930Z,99541.59
2023-02-22T12:31:46.454Z,99544.88
2023-02-22T12:34:23.000Z,99547.97
2023-02-22T12:37:02.229Z,99550.06
2023-02-22T12:40:10.220Z,99553.13
2023-02-22T12:42:56.978Z,99554.72
2023-02-22T12:45:58.598Z,99561.22
2023-02-22T12:48:47.169Z,99567.91
2023-02-22T12:51:41.527Z,99563.69
2023-02-22T12:54:21.888Z,99563.06
2023-02-22T12:57:09.803Z,99572.78
2023-02-22T12:59:50.749Z,99572.03
2023-02-22T13:02:33.491Z,99566.91
2023-02-22T13:05:03.130Z,99567.09
2023-02-22T13:07:45.056Z,99564.53
2023-02-22T13:10:34.402Z,99564.59
2023-02-22T13:13:40.893Z,99574.28
2023-02-22T13:16:33.223Z,99566.53
2023-02-22T13:19:11.974Z,99572.84
2023-02-22T13:22:07.265Z,99581.56
2023-02-22T13:24:47.901Z,99581.63
2023-02-22T13:27:31.449Z,99583.38
2023-02-22T13:30:02.282Z,99586.81
2023-02-22T13:32:56.908Z,99593.81
2023-02-22T13:35:52.705Z,99595.63
2023-02-22T13:38:48.809Z,99602.72
2023-02-22T13:41:35.836Z,99603.56
2023-02-22T13:44:19.485Z,99604.53
2023-02-22T13:47:12.149Z,99608.03
2023-02-22T13:50:07.842Z,99615.88
2023-02-22T13:52:40.905Z,99614.13
2023-02-22T13:55:18.943Z,99617.75
2023-02-22T13:57:53.138Z,99620.34
2023-02-22T14:00:24.986Z,99616.00
2023-02-22T14:03:35.345Z,99625.59
2023-02-22T14:06:05.416Z,99623.03
2023-02-22T14:08:35.117Z,99619.56
2023-02-22T14:11:15.378Z,99625.69
2023-02-22T14:14:01.449Z,99624.00
2023-02-22T14:16:31.432Z,99623.09
2023-02-22T14:19:17.696Z,99626.59
2023-02-22T14:22:02.951Z,99626.59
2023-02-22T14:24:44.458Z,99627.47
2023-02-22T14:27:15.928Z,99635.28
2023-02-22T14:29:56.800Z,99631.00
2023-02-22T14:32:36.350Z,99620.59
2023-02-22T14:35:26.495Z,99624.06
2023-02-22T14:38:01.293Z,99625.84
2023-02-22T14:40:35.567Z,99623.28
2023-02-22T14:43:22.389Z,99629.38
2023-02-22T14:45:57.275Z,99643.31
2023-02-22T14:48:41.163Z,99636.38
2023-02-22T14:51:25.809Z,99634.72
2023-02-22T14:54:14.107Z,99642.56
2023-02-22T14:56:50.027Z,99648.66
2023-02-22T14:59:21.856Z,99647.81
2023-02-22T15:02:09.672Z,99640.91
2023-02-22T15:04:39.251Z,99640.94
2023-02-22T15:07:30.275Z,99642.72
2023-02-22T15:10:18.474Z,99644.44
2023-02-22T15:13:12.308Z,99645.34
2023-02-22T15:15:49.103Z,99647.13
2023-02-22T15:18:48.712Z,99652.34
2023-02-22T15:21:28.466Z,99658.41
2023-02-22T15:24:02.554Z,99655.81
2023-02-22T15:26:49.061Z,99664.53
2023-02-22T15:29:33.050Z,99660.22
2023-02-22T15:32:01.134Z,99670.63
2023-02-22T15:34:34.646Z,99667.19
2023-02-22T15:37:29.331Z,99674.13
2023-02-22T15:40:21.488Z,99670.69
2023-02-22T15:42:53.371Z,99676.75
2023-02-22T15:45:27.156Z,99671.53
2023-02-22T15:47:56.223Z,99688.00
2023-02-22T15:50:29.770Z,99693.22
2023-02-22T15:53:21.527Z,99692.38
2023-02-22T15:55:55.376Z,99699.31
2023-02-22T15:58:25.687Z,99701.91
2023-02-22T16:01:09.160Z,99708.84
2023-02-22T16:03:45.173Z,99714.94
2023-02-22T16:06:21.269Z,99713.19
2023-02-22T16:08:55.074Z,99719.25
2023-02-22T16:11:22.877Z,99728.81
2023-02-22T16:13:54.705Z,99733.16
2023-02-22T16:16:27.614Z,99731.41
2023-02-22T16:19:36.739Z,99735.75
2023-02-22T16:22:13.688Z,99743.56
2023-02-22T16:24:41.231Z,99732.28
2023-02-22T16:27:11.277Z,99743.56
2023-02-22T16:29:38.662Z,99748.75
2023-02-22T16:32:08.672Z,99753.09
2023-02-22T16:34:36.172Z,99750.50
2023-02-22T16:37:04.445Z,99761.78
2023-02-22T16:39:36.162Z,99766.13
2023-02-22T16:42:05.590Z,99763.50
2023-02-22T16:44:34.836Z,99766.97
2023-02-22T16:47:02.258Z,99767.84
2023-02-22T16:49:29.956Z,99770.44
2023-02-22T16:52:01.897Z,99779.97
2023-02-22T16:54:46.191Z,99779.97
2023-02-22T16:57:21.450Z,99779.97
2023-02-22T16:59:52.443Z,99776.50
2023-02-22T17:02:20.714Z,99781.72
2023-02-22T17:04:49.910Z,99779.13
2023-02-22T17:07:24.142Z,99783.47
2023-02-22T17:09:51.555Z,99779.09
2023-02-22T17:12:19.972Z,99780.84
2023-02-22T17:14:47.369Z,99786.91
2023-02-22T17:17:15.620Z,99792.13
2023-02-22T17:19:43.214Z,99790.38
2023-02-22T17:22:21.974Z,99788.66
2023-02-22T17:24:49.459Z,99793.00
2023-02-22T17:27:16.737Z,99793.84
2023-02-22T17:29:45.488Z,99797.31
2023-02-22T17:32:13.182Z,99798.19
2023-02-22T17:34:41.073Z,99804.22
2023-02-22T17:37:08.223Z,99801.63
2023-02-22T17:39:35.606Z,99808.59
2023-02-22T17:42:03.066Z,99812.91
2023-02-22T17:44:30.570Z,99812.88
2023-02-22T17:46:57.769Z,99813.75
2023-02-22T17:49:25.056Z,99812.00
2023-02-22T17:51:53.683Z,99824.09
2023-02-22T17:54:21.036Z,99836.19
2023-02-22T17:56:48.486Z,99828.28
2023-02-22T17:59:16.058Z,99830.00
2023-02-22T18:01:44.251Z,99830.84
2023-02-22T18:04:12.025Z,99821.22
2023-02-22T18:06:40.410Z,99828.13
2023-02-22T18:09:10.971Z,99831.53
2023-02-22T18:11:40.007Z,99841.03
2023-02-22T18:14:10.245Z,99839.31
2023-02-22T18:16:39.192Z,99840.94
2023-02-22T18:19:06.551Z,99842.75
2023-02-22T18:21:33.808Z,99850.53
2023-02-22T18:24:01.334Z,99854.94
2023-02-22T18:26:29.285Z,99852.31
2023-02-22T18:28:56.839Z,99850.63
2023-02-22T18:31:24.986Z,99853.22
2023-02-22T18:33:53.692Z,99858.44
2023-02-22T18:36:23.623Z,99863.47
2023-02-22T18:38:53.239Z,99860.78
2023-02-22T18:41:26.076Z,99868.72
2023-02-22T18:43:55.778Z,99860.00
2023-02-22T18:46:24.799Z,99857.50
2023-02-22T18:48:56.423Z,99868.81
2023-02-22T18:51:25.423Z,99868.59
2023-02-22T18:53:57.237Z,99869.50
2023-02-22T18:56:34.124Z,99873.56
2023-02-22T18:59:03.307Z,99876.28
2023-02-22T19:01:31.860Z,99880.50
2023-02-22T19:04:01.055Z,99881.34
2023-02-22T19:06:28.635Z,99886.66
2023-02-22T19:08:56.068Z,99887.38
2023-02-22T19:11:24.939Z,99892.47
2023-02-22T19:13:54.512Z,99904.50
2023-02-22T19:16:22.869Z,99901.88
2023-02-22T19:18:52.773Z,99902.91
2023-02-22T19:21:21.394Z,99908.97
2023-02-22T19:23:49.412Z,99921.06
2023-02-22T19:26:24.893Z,99914.97
2023-02-22T19:28:56.688Z,99917.59
2023-02-22T19:31:29.869Z,99913.97
2023-02-22T19:34:11.399Z,99920.81
2023-02-22T19:36:41.292Z,99921.75
2023-02-22T19:39:08.847Z,99925.13
2023-02-22T19:41:36.119Z,99924.22
2023-02-22T19:44:03.409Z,99929.31
2023-02-22T19:46:31.615Z,99926.72
2023-02-22T19:48:59.571Z,99924.91
2023-02-22T19:51:29.017Z,99919.91
2023-02-22T19:54:05.485Z,99932.00
2023-02-22T19:56:35.794Z,99940.69
2023-02-22T19:59:17.123Z,99939.91
2023-02-22T20:01:44.882Z,99943.41
2023-02-22T20:04:18.665Z,99945.16
2023-02-22T20:06:46.857Z,99945.28
2023-02-22T20:09:18.231Z,99952.22
2023-02-22T20:11:49.271Z,99943.59
2023-02-22T20:14:23.536Z,99950.59
2023-02-22T20:16:52.168Z,99954.06
2023-02-22T20:19:19.948Z,99964.47
2023-02-22T20:21:47.595Z,99962.78
2023-02-22T20:24:15.720Z,99969.72
2023-02-22T20:26:44.407Z,99972.31
2023-02-22T20:29:12.572Z,99968.81
2023-02-22T20:31:42.669Z,99973.03
2023-02-22T20:34:11.771Z,99976.59
2023-02-22T20:36:41.681Z,99977.56
2023-02-22T20:39:13.834Z,99976.59
2023-02-22T20:41:43.662Z,99980.03
2023-02-22T20:44:20.702Z,99972.22
2023-02-22T20:46:48.763Z,99977.34
2023-02-22T20:49:19.281Z,99978.38
2023-02-22T20:51:48.254Z,99973.88
2023-02-22T20:54:16.858Z,99973.97
2023-02-22T20:56:46.200Z,99981.84
2023-02-22T20:59:15.943Z,99978.22
2023-02-22T21:01:43.965Z,99980.03
2023-02-22T21:04:12.236Z,99989.63
2023-02-22T21:06:41.044Z,99995.75
2023-02-22T21:09:13.819Z,99998.38
2023-02-22T21:11:41.463Z,100000.09
2023-02-22T21:14:10.475Z,100005.28
2023-02-22T21:16:38.011Z,100003.59
2023-02-22T21:19:07.422Z,100010.56
2023-02-22T21:21:36.008Z,100008.81
2023-02-22T21:24:03.434Z,100013.19
2023-02-22T21:26:32.866Z,100009.69
2023-02-22T21:29:02.800Z,100008.81
2023-02-22T21:31:31.828Z,100005.34
2023-02-22T21:34:00.366Z,100017.31
2023-02-22T21:36:29.208Z,100017.94
2023-02-22T21:38:58.965Z,100028.31
2023-02-22T21:41:29.309Z,100022.81
2023-02-22T21:43:58.210Z,100032.81
2023-02-22T21:46:27.885Z,100039.28
2023-02-22T21:48:59.087Z,100027.31
2023-02-22T21:51:32.038Z,100034.00
2023-02-22T21:54:02.428Z,100050.38
2023-02-22T21:56:32.526Z,100049.38
2023-02-22T21:59:03.685Z,100053.44
2023-02-22T22:01:36.732Z,100063.00
2023-02-22T22:04:05.236Z,100062.03
2023-02-22T22:06:34.956Z,100063.59
2023-02-22T22:09:05.512Z,100069.41
2023-02-22T22:11:32.786Z,100067.69
2023-02-22T22:14:01.579Z,100073.03
2023-02-22T22:16:30.209Z,100072.28
2023-02-22T22:18:57.682Z,100074.00
2023-02-22T22:21:25.590Z,100074.84
2023-02-22T22:23:56.514Z,100079.59
2023-02-22T22:26:25.850Z,100077.94
2023-02-22T22:28:56.245Z,100089.56
2023-02-22T22:31:26.537Z,100089.69
2023-02-22T22:33:55.489Z,100087.09
2023-02-22T22:36:24.656Z,100090.38
2023-02-22T22:38:53.187Z,100093.22
2023-02-22T22:41:22.562Z,100091.59
2023-02-22T22:43:52.805Z,100095.81
2023-02-22T22:46:20.182Z,100105.22
2023-02-22T22:48:47.676Z,100105.97
2023-02-22T22:51:18.831Z,100123.19
2023-02-22T22:53:47.808Z,100121.88
2023-02-22T22:56:17.459Z,100116.38
2023-02-22T22:58:56.425Z,100129.09
2023-02-22T23:01:27.627Z,100127.44
2023-02-22T23:04:00.588Z,100131.69
2023-02-22T23:06:40.948Z,100135.28
2023-02-22T23:09:13.739Z,100137.56
2023-02-22T23:11:45.485Z,100134.25
2023-02-22T23:14:19.708Z,100143.16
2023-02-22T23:16:49.589Z,100136.19
2023-02-22T23:19:19.410Z,100154.72
2023-02-22T23:21:48.524Z,100149.47
2023-02-22T23:24:18.081Z,100151.50
2023-02-22T23:26:49.262Z,100162.72
2023-02-22T23:29:22.186Z,100161.69
2023-02-22T23:31:51.579Z,100168.59
2023-02-22T23:34:21.465Z,100168.28
2023-02-22T23:36:55.179Z,100171.84
2023-02-22T23:39:24.375Z,100172.47
2023-02-22T23:41:59.514Z,100169.81
2023-02-22T23:44:28.145Z,100169.91
2023-02-22T23:46:55.810Z,100177.25
2023-02-22T23:49:31.750Z,100183.78
2023-02-22T23:51:59.107Z,100188.34
2023-02-22T23:54:26.197Z,100184.69
2023-02-22T23:57:02.783Z,100193.81
2023-02-22T23:59:32.971Z,100196.22
